createdAt,value
2022-12-01T00:00:16.684Z,29.495
2022-12-01T00:05:16.525Z,29.485
2022-12-01T00:10:16.856Z,29.475
2022-12-01T00:15:16.493Z,29.469
2022-12-01T00:20:16.572Z,29.456
2022-12-01T00:25:16.770Z,29.447
2022-12-01T00:30:16.675Z,29.441
2022-12-01T00:35:16.588Z,29.432
2022-12-01T00:40:17.100Z,29.431
2022-12-01T00:45:16.575Z,29.455
2022-12-01T00:50:16.711Z,29.463
2022-12-01T00:55:16.888Z,29.459
2022-12-01T01:00:16.809Z,29.460
2022-12-01T01:05:16.744Z,29.459
2022-12-01T01:10:16.856Z,29.474
2022-12-01T01:15:16.866Z,29.482
2022-12-01T01:20:16.848Z,29.478
2022-12-01T01:25:16.817Z,29.474
2022-12-01T01:30:16.832Z,29.478
2022-12-01T01:35:16.780Z,29.481
2022-12-01T01:40:16.914Z,29.500
2022-12-01T01:45:16.893Z,29.498
2022-12-01T01:50:17.053Z,29.509
2022-12-01T01:55:17.146Z,29.501
2022-12-01T02:00:16.840Z,29.491
2022-12-01T02:05:16.854Z,29.487
2022-12-01T02:10:17.307Z,29.490
2022-12-01T02:15:16.898Z,29.504
2022-12-01T02:20:16.839Z,29.514
2022-12-01T02:25:17.122Z,29.511
2022-12-01T02:30:16.995Z,29.505
2022-12-01T02:35:16.834Z,29.515
2022-12-01T02:40:17.020Z,29.515
2022-12-01T02:45:17.181Z,29.504
2022-12-01T02:50:17.059Z,29.501
2022-12-01T02:55:17.014Z,29.521
2022-12-01T03:00:17.165Z,29.531
2022-12-01T03:05:16.903Z,29.522
2022-12-01T03:10:17.283Z,29.519
2022-12-01T03:15:16.925Z,29.505
2022-12-01T03:20:17.358Z,29.519
2022-12-01T03:25:17.038Z,29.521
2022-12-01T03:30:17.092Z,29.527
2022-12-01T03:35:17.216Z,29.527
2022-12-01T03:40:17.288Z,29.534
2022-12-01T03:45:17.006Z,29.540
2022-12-01T03:50:17.966Z,29.537
2022-12-01T03:55:17.112Z,29.531
2022-12-01T04:00:17.193Z,29.538
2022-12-01T04:05:21.156Z,29.537
2022-12-01T04:10:17.609Z,29.543
2022-12-01T04:15:17.151Z,29.545
2022-12-01T04:20:17.480Z,29.548
2022-12-01T04:25:18.008Z,29.551
2022-12-01T04:30:17.437Z,29.557
2022-12-01T04:35:17.097Z,29.562
2022-12-01T04:40:17.264Z,29.568
2022-12-01T04:45:17.425Z,29.571
2022-12-01T04:50:17.305Z,29.573
2022-12-01T04:55:17.282Z,29.579
2022-12-01T05:00:16.175Z,29.579
2022-12-01T05:05:16.201Z,29.581
2022-12-01T05:10:16.468Z,29.583
2022-12-01T05:15:16.304Z,29.590
2022-12-01T05:20:16.514Z,29.592
2022-12-01T05:25:16.438Z,29.593
2022-12-01T05:30:16.640Z,29.596
2022-12-01T05:35:16.304Z,29.601
2022-12-01T05:40:16.615Z,29.603
2022-12-01T05:45:16.328Z,29.606
2022-12-01T05:50:16.431Z,29.609
2022-12-01T05:55:16.835Z,29.608
2022-12-01T06:00:16.492Z,29.617
2022-12-01T06:05:16.367Z,29.617
2022-12-01T06:10:16.612Z,29.622
2022-12-01T06:15:16.427Z,29.621
2022-12-01T06:20:16.435Z,29.635
2022-12-01T06:25:16.512Z,29.630
2022-12-01T06:30:16.736Z,29.639
2022-12-01T06:35:16.435Z,29.640
2022-12-01T06:40:16.693Z,29.650
2022-12-01T06:45:16.547Z,29.656
2022-12-01T06:50:16.736Z,29.652
2022-12-01T06:55:16.541Z,29.660
2022-12-01T07:00:16.608Z,29.663
2022-12-01T07:05:16.712Z,29.667
2022-12-01T07:10:16.794Z,29.673
2022-12-01T07:15:16.705Z,29.677
2022-12-01T07:20:16.610Z,29.682
2022-12-01T07:25:16.576Z,29.683
2022-12-01T07:30:16.597Z,29.684
2022-12-01T07:35:16.552Z,29.685
2022-12-01T07:40:16.891Z,29.684
2022-12-01T07:45:16.672Z,29.687
2022-12-01T07:50:16.649Z,29.692
2022-12-01T07:55:16.873Z,29.691
2022-12-01T08:00:16.925Z,29.694
2022-12-01T08:05:16.632Z,29.696
2022-12-01T08:10:16.811Z,29.697
2022-12-01T08:15:16.869Z,29.700
2022-12-01T08:20:22.322Z,29.701
2022-12-01T08:25:16.778Z,29.701
2022-12-01T08:30:16.796Z,29.703
2022-12-01T08:35:17.477Z,29.705
2022-12-01T08:40:18.750Z,29.707
2022-12-01T08:45:16.809Z,29.709
2022-12-01T08:50:17.004Z,29.709
2022-12-01T08:55:16.885Z,29.710
2022-12-01T09:00:17.022Z,29.707
2022-12-01T09:05:17.025Z,29.712
2022-12-01T09:10:17.328Z,29.716
2022-12-01T09:15:16.917Z,29.719
2022-12-01T09:20:16.886Z,29.723
2022-12-01T09:25:17.166Z,29.729
2022-12-01T09:30:16.955Z,29.734
2022-12-01T09:35:22.043Z,29.743
2022-12-01T09:40:16.928Z,29.746
2022-12-01T09:45:16.940Z,29.753
2022-12-01T09:50:16.991Z,29.755
2022-12-01T09:55:17.102Z,29.758
2022-12-01T10:00:17.242Z,29.761
2022-12-01T10:05:17.027Z,29.762
2022-12-01T10:10:17.201Z,29.762
2022-12-01T10:15:17.035Z,29.769
2022-12-01T10:20:17.525Z,29.771
2022-12-01T10:25:17.203Z,29.775
2022-12-01T10:30:17.070Z,29.778
2022-12-01T10:35:17.278Z,29.782
2022-12-01T10:40:17.295Z,29.784
2022-12-01T10:45:17.940Z,29.785
2022-12-01T10:50:17.326Z,29.790
2022-12-01T10:55:17.224Z,29.791
2022-12-01T11:00:42.990Z,29.793
2022-12-01T11:05:18.429Z,29.797
2022-12-01T11:10:17.227Z,29.802
2022-12-01T11:15:17.165Z,29.802
2022-12-01T11:20:17.333Z,29.808
2022-12-01T11:25:17.734Z,29.814
2022-12-01T11:30:17.206Z,29.819
2022-12-01T11:35:17.197Z,29.821
2022-12-01T11:40:17.635Z,29.824
2022-12-01T11:45:17.309Z,29.827
2022-12-01T11:50:17.390Z,29.830
2022-12-01T11:55:17.382Z,29.832
2022-12-01T12:00:17.362Z,29.835
2022-12-01T12:05:17.454Z,29.840
2022-12-01T12:10:17.422Z,29.844
2022-12-01T12:15:17.570Z,29.847
2022-12-01T12:20:17.867Z,29.846
2022-12-01T12:25:17.513Z,29.849
2022-12-01T12:30:17.509Z,29.855
2022-12-01T12:35:17.633Z,29.857
2022-12-01T12:40:17.456Z,29.860
2022-12-01T12:45:17.349Z,29.862
2022-12-01T12:50:17.601Z,29.863
2022-12-01T12:55:17.524Z,29.869
2022-12-01T13:00:17.454Z,29.867
2022-12-01T13:05:17.481Z,29.872
2022-12-01T13:10:17.529Z,29.871
2022-12-01T13:15:17.575Z,29.873
2022-12-01T13:20:17.701Z,29.875
2022-12-01T13:25:17.679Z,29.872
2022-12-01T13:30:18.413Z,29.876
2022-12-01T13:35:17.418Z,29.873
2022-12-01T13:40:17.672Z,29.875
2022-12-01T13:45:17.813Z,29.877
2022-12-01T13:50:17.546Z,29.881
2022-12-01T13:55:17.779Z,29.885
2022-12-01T14:00:17.722Z,29.888
2022-12-01T14:05:17.605Z,29.891
2022-12-01T14:10:17.746Z,29.889
2022-12-01T14:15:17.594Z,29.892
2022-12-01T14:20:17.631Z,29.894
2022-12-01T14:25:17.601Z,29.896
2022-12-01T14:30:17.853Z,29.893
2022-12-01T14:35:17.602Z,29.897
2022-12-01T14:40:17.834Z,29.900
2022-12-01T14:45:17.787Z,29.903
2022-12-01T14:50:17.809Z,29.903
2022-12-01T14:55:18.958Z,29.909
2022-12-01T15:00:17.715Z,29.909
2022-12-01T15:05:17.909Z,29.909
2022-12-01T15:10:18.008Z,29.908
2022-12-01T15:15:23.428Z,29.909
2022-12-01T15:20:17.854Z,29.908
2022-12-01T15:25:17.905Z,29.909
2022-12-01T15:30:17.749Z,29.914
2022-12-01T15:35:17.881Z,29.915
2022-12-01T15:41:20.990Z,29.916
2022-12-01T15:45:18.044Z,29.918
2022-12-01T15:50:17.785Z,29.915
2022-12-01T15:55:17.974Z,29.913
2022-12-01T16:00:18.053Z,29.917
2022-12-01T16:05:17.883Z,29.916
2022-12-01T16:10:18.027Z,29.912
2022-12-01T16:15:18.027Z,29.912
2022-12-01T16:20:17.877Z,29.909
2022-12-01T16:25:17.916Z,29.913
2022-12-01T16:30:18.025Z,29.917
2022-12-01T16:35:17.906Z,29.918
2022-12-01T16:40:18.217Z,29.917
2022-12-01T16:45:17.968Z,29.909
2022-12-01T16:50:18.125Z,29.914
2022-12-01T16:55:18.182Z,29.913
2022-12-01T17:00:18.116Z,29.917
2022-12-01T17:05:18.025Z,29.920
2022-12-01T17:10:18.326Z,29.919
2022-12-01T17:15:18.480Z,29.920
2022-12-01T17:20:18.088Z,29.921
2022-12-01T17:25:18.344Z,29.922
2022-12-01T17:30:18.076Z,29.925
2022-12-01T17:35:18.396Z,29.932
2022-12-01T17:40:16.433Z,29.932
2022-12-01T17:45:18.194Z,29.933
2022-12-01T17:50:18.231Z,29.934
2022-12-01T17:55:18.383Z,29.935
2022-12-01T18:00:18.319Z,29.935
2022-12-01T18:05:16.256Z,29.935
2022-12-01T18:10:16.435Z,29.937
2022-12-01T18:15:16.426Z,29.935
2022-12-01T18:20:16.259Z,29.938
2022-12-01T18:25:16.504Z,29.937
2022-12-01T18:30:16.285Z,29.938
2022-12-01T18:35:16.571Z,29.940
2022-12-01T18:40:16.332Z,29.943
2022-12-01T18:45:20.870Z,29.945
2022-12-01T18:50:16.333Z,29.946
2022-12-01T18:55:17.121Z,29.947
2022-12-01T19:00:16.341Z,29.951
2022-12-01T19:05:16.318Z,29.951
2022-12-01T19:10:16.800Z,29.955
2022-12-01T19:15:16.440Z,29.956
2022-12-01T19:20:17.182Z,29.962
2022-12-01T19:25:16.336Z,29.965
2022-12-01T19:30:16.484Z,29.964
2022-12-01T19:35:16.594Z,29.970
2022-12-01T19:40:16.518Z,29.975
2022-12-01T19:45:16.597Z,29.979
2022-12-01T19:50:16.476Z,29.985
2022-12-01T19:55:16.502Z,29.989
2022-12-01T20:00:16.409Z,29.994
2022-12-01T20:05:16.514Z,30.001
2022-12-01T20:10:16.525Z,30.007
2022-12-01T20:15:17.427Z,30.007
2022-12-01T20:20:17.195Z,30.014
2022-12-01T20:25:16.665Z,30.012
2022-12-01T20:30:16.603Z,30.016
2022-12-01T20:35:16.652Z,30.017
2022-12-01T20:40:16.619Z,30.026
2022-12-01T20:45:16.743Z,30.031
2022-12-01T20:50:16.838Z,30.034
2022-12-01T20:55:16.640Z,30.037
2022-12-01T21:00:16.631Z,30.040
2022-12-01T21:05:16.575Z,30.045
2022-12-01T21:10:19.916Z,30.054
2022-12-01T21:15:16.814Z,30.060
2022-12-01T21:20:16.844Z,30.059
2022-12-01T21:25:17.116Z,30.065
2022-12-01T21:30:16.735Z,30.068
2022-12-01T21:35:16.752Z,30.075
2022-12-01T21:40:17.018Z,30.081
2022-12-01T21:45:16.762Z,30.084
2022-12-01T21:50:16.728Z,30.086
2022-12-01T21:55:17.392Z,30.092
2022-12-01T22:00:16.762Z,30.091
2022-12-01T22:05:16.770Z,30.096
2022-12-01T22:10:16.939Z,30.101
2022-12-01T22:15:17.175Z,30.101
2022-12-01T22:20:16.967Z,30.103
2022-12-01T22:25:17.143Z,30.105
2022-12-01T22:30:17.488Z,30.111
2022-12-01T22:35:16.762Z,30.113
2022-12-01T22:40:17.058Z,30.116
2022-12-01T22:45:17.021Z,30.120
2022-12-01T22:50:16.874Z,30.122
2022-12-01T22:55:17.009Z,30.125
2022-12-01T23:00:17.115Z,30.126
2022-12-01T23:05:17.335Z,30.128
2022-12-01T23:10:17.068Z,30.129
2022-12-01T23:15:16.953Z,30.129
2022-12-01T23:20:16.989Z,30.128
2022-12-01T23:25:17.051Z,30.131
2022-12-01T23:30:17.042Z,30.131
2022-12-01T23:35:17.074Z,30.134
2022-12-01T23:40:17.393Z,30.136
2022-12-01T23:45:17.262Z,30.144
2022-12-01T23:50:17.039Z,30.144
2022-12-01T23:55:17.007Z,30.148
